createdAt,value
2023-06-10T00:00:37.494Z,100156.19
2023-06-10T00:03:06.007Z,100157.03
2023-06-10T00:05:36.395Z,100160.34
2023-06-10T00:08:08.408Z,100157.03
2023-06-10T00:10:37.649Z,100152.16
2023-06-10T00:13:06.011Z,100145.22
2023-06-10T00:15:34.863Z,100150.41
2023-06-10T00:18:03.517Z,100144.94
2023-06-10T00:20:32.810Z,100149.09
2023-06-10T00:23:02.432Z,100143.00
2023-06-10T00:25:32.847Z,100142.25
2023-06-10T00:28:00.579Z,100139.09
2023-06-10T00:30:31.111Z,100148.34
2023-06-10T00:32:59.095Z,100139.22
2023-06-10T00:35:28.597Z,100144.28
2023-06-10T00:37:56.548Z,100145.50
2023-06-10T00:40:25.481Z,100142.28
2023-06-10T00:42:54.855Z,100140.75
2023-06-10T00:45:23.647Z,100142.25
2023-06-10T00:47:53.629Z,100142.19
2023-06-10T00:50:21.815Z,100148.88
2023-06-10T00:52:53.447Z,100145.22
2023-06-10T00:55:24.480Z,100147.31
2023-06-10T00:57:56.500Z,100151.94
2023-06-10T01:00:24.560Z,100142.16
2023-06-10T01:02:53.669Z,100147.72
2023-06-10T01:05:22.900Z,100147.00
2023-06-10T01:08:00.464Z,100143.34
2023-06-10T01:10:35.053Z,100145.81
2023-06-10T01:13:08.488Z,100149.06
2023-06-10T01:15:37.678Z,100150.25
2023-06-10T01:18:11.253Z,100143.72
2023-06-10T01:20:41.149Z,100147.72
2023-06-10T01:23:11.539Z,100143.03
2023-06-10T01:25:41.216Z,100149.00
2023-06-10T01:28:15.474Z,100148.19
2023-06-10T01:30:50.657Z,100153.63
2023-06-10T01:33:26.146Z,100149.50
2023-06-10T01:35:58.552Z,100147.53
2023-06-10T01:38:31.891Z,100147.69
2023-06-10T01:41:00.413Z,100151.38
2023-06-10T01:43:28.942Z,100158.41
2023-06-10T01:45:56.934Z,100157.31
2023-06-10T01:48:25.892Z,100160.59
2023-06-10T01:50:54.090Z,100158.44
2023-06-10T01:53:23.099Z,100164.53
2023-06-10T01:55:52.865Z,100173.31
2023-06-10T01:58:21.362Z,100177.56
2023-06-10T02:00:49.633Z,100169.53
2023-06-10T02:03:18.859Z,100173.31
2023-06-10T02:05:46.972Z,100176.16
2023-06-10T02:08:18.173Z,100177.84
2023-06-10T02:10:46.224Z,100173.75
2023-06-10T02:13:16.514Z,100172.22
2023-06-10T02:15:44.967Z,100179.00
2023-06-10T02:18:14.700Z,100179.84
2023-06-10T02:20:42.673Z,100176.88
2023-06-10T02:23:11.618Z,100183.38
2023-06-10T02:25:39.618Z,100194.25
2023-06-10T02:28:08.141Z,100187.75
2023-06-10T02:30:38.461Z,100185.22
2023-06-10T02:33:06.327Z,100186.75
2023-06-10T02:35:35.000Z,100188.03
2023-06-10T02:38:03.066Z,100193.97
2023-06-10T02:40:32.344Z,100193.97
2023-06-10T02:43:00.484Z,100189.97
2023-06-10T02:45:31.079Z,100199.88
2023-06-10T02:48:02.188Z,100195.94
2023-06-10T02:50:32.308Z,100198.81
2023-06-10T02:53:12.374Z,100192.88
2023-06-10T02:55:45.698Z,100195.31
2023-06-10T02:58:16.606Z,100200.09
2023-06-10T03:00:46.694Z,100202.78
2023-06-10T03:03:17.143Z,100204.88
2023-06-10T03:05:55.088Z,100204.91
2023-06-10T03:08:24.564Z,100204.50
2023-06-10T03:10:52.685Z,100195.78
2023-06-10T03:13:22.151Z,100204.13
2023-06-10T03:15:51.199Z,100197.59
2023-06-10T03:18:25.235Z,100203.28
2023-06-10T03:20:54.358Z,100199.34
2023-06-10T03:23:24.006Z,100192.81
2023-06-10T03:25:53.174Z,100202.41
2023-06-10T03:28:22.083Z,100202.13
2023-06-10T03:30:51.243Z,100207.44
2023-06-10T03:33:19.321Z,100201.50
2023-06-10T03:35:49.381Z,100194.44
2023-06-10T03:38:17.520Z,100197.59
2023-06-10T03:40:46.203Z,100205.38
2023-06-10T03:43:14.374Z,100204.13
2023-06-10T03:45:43.104Z,100198.75
2023-06-10T03:48:12.728Z,100210.06
2023-06-10T03:50:52.305Z,100199.78
2023-06-10T03:53:22.118Z,100211.09
2023-06-10T03:55:51.381Z,100211.50
2023-06-10T03:58:23.998Z,100206.13
2023-06-10T04:00:52.054Z,100212.19
2023-06-10T04:03:25.358Z,100210.94
2023-06-10T04:05:55.714Z,100204.44
2023-06-10T04:08:27.834Z,100207.53
2023-06-10T04:10:55.982Z,100206.81
2023-06-10T04:13:24.911Z,100204.66
2023-06-10T04:15:56.729Z,100208.03
2023-06-10T04:18:25.682Z,100212.00
2023-06-10T04:20:58.215Z,100212.53
2023-06-10T04:23:27.334Z,100212.94
2023-06-10T04:25:55.582Z,100213.94
2023-06-10T04:28:25.190Z,100219.06
2023-06-10T04:30:53.163Z,100220.47
2023-06-10T04:33:22.178Z,100221.78
2023-06-10T04:35:50.296Z,100222.63
2023-06-10T04:38:22.107Z,100229.44
2023-06-10T04:40:50.210Z,100227.03
2023-06-10T04:43:19.994Z,100231.13
2023-06-10T04:45:48.770Z,100224.09
2023-06-10T04:48:17.976Z,100229.06
2023-06-10T04:50:45.961Z,100228.41
2023-06-10T04:53:15.768Z,100230.50
2023-06-10T04:55:49.336Z,100226.78
2023-06-10T04:58:18.314Z,100223.41
2023-06-10T05:00:46.267Z,100229.47
2023-06-10T05:03:14.884Z,100229.03
2023-06-10T05:05:42.951Z,100226.50
2023-06-10T05:08:11.846Z,100232.28
2023-06-10T05:10:39.815Z,100224.72
2023-06-10T05:13:10.164Z,100226.41
2023-06-10T05:15:38.140Z,100237.34
2023-06-10T05:18:07.215Z,100234.09
2023-06-10T05:20:35.231Z,100242.16
2023-06-10T05:23:04.569Z,100235.25
2023-06-10T05:25:33.637Z,100233.31
2023-06-10T05:28:02.656Z,100236.59
2023-06-10T05:30:32.102Z,100243.38
2023-06-10T05:33:00.856Z,100242.91
2023-06-10T05:35:28.839Z,100248.66
2023-06-10T05:37:57.338Z,100245.22
2023-06-10T05:40:25.508Z,100239.97
2023-06-10T05:42:53.552Z,100236.69
2023-06-10T05:45:22.021Z,100239.78
2023-06-10T05:47:51.973Z,100233.78
2023-06-10T05:50:21.086Z,100241.09
2023-06-10T05:52:49.118Z,100235.41
2023-06-10T05:55:17.555Z,100234.44
2023-06-10T05:57:45.522Z,100235.13
2023-06-10T06:00:15.174Z,100238.53
2023-06-10T06:02:43.797Z,100240.06
2023-06-10T06:05:14.285Z,100237.75
2023-06-10T06:07:42.550Z,100239.97
2023-06-10T06:10:11.858Z,100234.91
2023-06-10T06:12:40.119Z,100236.31
2023-06-10T06:15:10.826Z,100236.00
2023-06-10T06:17:39.220Z,100235.63
2023-06-10T06:20:09.258Z,100232.94
2023-06-10T06:22:38.684Z,100232.63
2023-06-10T06:25:09.131Z,100226.69
2023-06-10T06:27:37.730Z,100229.97
2023-06-10T06:30:07.265Z,100230.06
2023-06-10T06:32:35.818Z,100229.47
2023-06-10T06:35:06.598Z,100234.72
2023-06-10T06:37:34.905Z,100232.69
2023-06-10T06:40:28.505Z,100228.63
2023-06-10T06:42:56.529Z,100227.25
2023-06-10T06:45:43.940Z,100226.06
2023-06-10T06:48:12.083Z,100236.38
2023-06-10T06:50:42.790Z,100232.50
2023-06-10T06:53:10.788Z,100225.56
2023-06-10T06:55:41.114Z,100225.56
2023-06-10T06:58:09.218Z,100229.94
2023-06-10T07:00:37.740Z,100225.19
2023-06-10T07:03:05.909Z,100222.44
2023-06-10T07:05:35.047Z,100228.56
2023-06-10T07:08:03.132Z,100223.47
2023-06-10T07:10:32.120Z,100227.69
2023-06-10T07:13:01.461Z,100230.38
2023-06-10T07:15:29.940Z,100229.50
2023-06-10T07:17:58.040Z,100233.88
2023-06-10T07:20:26.535Z,100236.91
2023-06-10T07:22:54.724Z,100236.31
2023-06-10T07:25:23.439Z,100232.50
2023-06-10T07:27:51.632Z,100236.84
2023-06-10T07:30:21.588Z,100236.81
2023-06-10T07:32:49.646Z,100238.97
2023-06-10T07:35:18.793Z,100239.91
2023-06-10T07:37:46.877Z,100250.38
2023-06-10T07:40:15.641Z,100247.28
2023-06-10T07:42:44.307Z,100240.22
2023-06-10T07:45:13.473Z,100244.25
2023-06-10T07:47:42.951Z,100243.19
2023-06-10T07:50:12.083Z,100241.09
2023-06-10T07:52:41.013Z,100244.22
2023-06-10T07:55:09.822Z,100240.13
2023-06-10T07:57:40.076Z,100249.41
2023-06-10T08:00:09.324Z,100246.53
2023-06-10T08:02:45.173Z,100245.34
2023-06-10T08:05:13.639Z,100246.91
2023-06-10T08:07:43.191Z,100254.06
2023-06-10T08:10:12.142Z,100251.63
2023-06-10T08:12:41.177Z,100246.50
2023-06-10T08:15:11.418Z,100255.19
2023-06-10T08:17:40.819Z,100246.84
2023-06-10T08:20:10.888Z,100249.03
2023-06-10T08:22:41.003Z,100250.03
2023-06-10T08:25:10.662Z,100250.81
2023-06-10T08:27:38.902Z,100254.25
2023-06-10T08:30:09.023Z,100253.25
2023-06-10T08:32:37.528Z,100246.41
2023-06-10T08:35:06.688Z,100248.81
2023-06-10T08:37:37.077Z,100238.78
2023-06-10T08:40:06.180Z,100243.44
2023-06-10T08:42:41.215Z,100240.06
2023-06-10T08:45:11.920Z,100241.78
2023-06-10T08:47:44.345Z,100233.88
2023-06-10T08:50:12.975Z,100238.88
2023-06-10T08:52:45.401Z,100243.81
2023-06-10T08:55:16.257Z,100248.00
2023-06-10T08:57:46.103Z,100251.81
2023-06-10T09:00:15.776Z,100247.41
2023-06-10T09:02:44.389Z,100239.66
2023-06-10T09:05:13.301Z,100248.38
2023-06-10T09:07:42.026Z,100254.00
2023-06-10T09:10:13.458Z,100243.50
2023-06-10T09:12:42.000Z,100241.47
2023-06-10T09:15:12.940Z,100243.38
2023-06-10T09:17:42.603Z,100253.63
2023-06-10T09:20:11.499Z,100256.72
2023-06-10T09:22:40.246Z,100239.94
2023-06-10T09:25:10.073Z,100240.16
2023-06-10T09:27:50.984Z,100240.47
2023-06-10T09:30:28.304Z,100234.97
2023-06-10T09:32:58.902Z,100241.72
2023-06-10T09:35:28.083Z,100242.59
2023-06-10T09:37:58.128Z,100240.22
2023-06-10T09:40:26.518Z,100232.94
2023-06-10T09:42:58.580Z,100232.31
2023-06-10T09:45:32.017Z,100236.78
2023-06-10T09:48:00.386Z,100229.44
2023-06-10T09:50:28.520Z,100227.75
2023-06-10T09:52:56.615Z,100234.00
2023-06-10T09:55:26.169Z,100234.81
2023-06-10T09:57:57.445Z,100232.88
2023-06-10T10:00:27.100Z,100242.09
2023-06-10T10:02:55.871Z,100238.72
2023-06-10T10:05:25.057Z,100238.19
2023-06-10T10:07:54.276Z,100223.88
2023-06-10T10:10:23.782Z,100235.91
2023-06-10T10:12:58.341Z,100237.16
2023-06-10T10:15:33.714Z,100241.31
2023-06-10T10:18:08.749Z,100236.91
2023-06-10T10:20:44.250Z,100228.31
2023-06-10T10:23:14.713Z,100231.69
2023-06-10T10:25:45.385Z,100230.63
2023-06-10T10:28:17.726Z,100233.56
2023-06-10T10:30:53.670Z,100235.06
2023-06-10T10:33:25.016Z,100245.56
2023-06-10T10:35:55.323Z,100243.47
2023-06-10T10:38:24.448Z,100246.84
2023-06-10T10:40:54.156Z,100243.03
2023-06-10T10:43:23.963Z,100237.59
2023-06-10T10:46:01.210Z,100235.69
2023-06-10T10:48:36.392Z,100238.19
2023-06-10T10:51:27.026Z,100226.66
2023-06-10T10:54:14.967Z,100238.03
2023-06-10T10:57:13.129Z,100233.41
2023-06-10T11:00:03.268Z,100233.41
2023-06-10T11:02:40.724Z,100235.06
2023-06-10T11:05:10.652Z,100228.41
2023-06-10T11:07:39.205Z,100225.34
2023-06-10T11:10:11.503Z,100220.88
2023-06-10T11:12:55.371Z,100220.97
2023-06-10T11:15:28.129Z,100215.00
2023-06-10T11:18:15.939Z,100222.88
2023-06-10T11:21:05.930Z,100215.00
2023-06-10T11:23:36.903Z,100214.72
2023-06-10T11:26:20.788Z,100223.16
2023-06-10T11:29:10.240Z,100215.13
2023-06-10T11:31:58.876Z,100210.19
2023-06-10T11:34:28.333Z,100212.94
2023-06-10T11:36:56.967Z,100211.59
2023-06-10T11:39:27.310Z,100209.81
2023-06-10T11:41:57.209Z,100212.38
2023-06-10T11:44:31.070Z,100204.25
2023-06-10T11:47:00.815Z,100211.28
2023-06-10T11:49:29.293Z,100188.97
2023-06-10T11:51:57.607Z,100211.75
2023-06-10T11:54:26.590Z,100201.53
2023-06-10T11:57:00.413Z,100194.91
2023-06-10T11:59:30.706Z,100204.41
2023-06-10T12:02:00.663Z,100199.59
2023-06-10T12:04:28.682Z,100195.41
2023-06-10T12:06:57.251Z,100198.28
2023-06-10T12:09:27.997Z,100196.31
2023-06-10T12:12:00.492Z,100193.41
2023-06-10T12:15:06.985Z,100191.09
2023-06-10T12:17:40.347Z,100191.28
2023-06-10T12:20:11.315Z,100182.22
2023-06-10T12:22:44.227Z,100189.75
2023-06-10T12:25:13.938Z,100192.03
2023-06-10T12:27:52.653Z,100189.59
2023-06-10T12:30:22.587Z,100193.84
2023-06-10T12:32:53.442Z,100187.84
2023-06-10T12:35:23.455Z,100192.09
2023-06-10T12:37:58.997Z,100182.41
2023-06-10T12:40:31.279Z,100182.09
2023-06-10T12:42:59.634Z,100175.94
2023-06-10T12:45:32.247Z,100187.31
2023-06-10T12:48:10.094Z,100181.28
2023-06-10T12:50:40.626Z,100187.19
2023-06-10T12:53:09.844Z,100183.03
2023-06-10T12:55:38.334Z,100181.13
2023-06-10T12:58:06.577Z,100187.22
2023-06-10T13:00:36.275Z,100177.19
2023-06-10T13:03:06.961Z,100175.13
2023-06-10T13:05:38.544Z,100174.28
2023-06-10T13:08:07.516Z,100176.25
2023-06-10T13:10:35.964Z,100169.91
2023-06-10T13:13:06.804Z,100174.88
2023-06-10T13:15:39.436Z,100170.50
2023-06-10T13:18:10.011Z,100168.63
2023-06-10T13:20:39.573Z,100159.31
2023-06-10T13:23:07.661Z,100166.81
2023-06-10T13:25:36.663Z,100152.84
2023-06-10T13:28:04.768Z,100167.41
2023-06-10T13:30:33.260Z,100158.19
2023-06-10T13:33:01.798Z,100152.44
2023-06-10T13:35:29.984Z,100136.81
2023-06-10T13:37:59.865Z,100146.91
2023-06-10T13:40:28.054Z,100147.59
2023-06-10T13:42:56.797Z,100135.13
2023-06-10T13:45:25.857Z,100127.66
2023-06-10T13:47:54.802Z,100137.34
2023-06-10T13:50:22.681Z,100135.88
2023-06-10T13:52:50.936Z,100129.81
2023-06-10T13:55:21.406Z,100125.16
2023-06-10T13:57:49.808Z,100126.56
2023-06-10T14:00:18.775Z,100124.97
2023-06-10T14:02:47.827Z,100122.88
2023-06-10T14:05:16.046Z,100123.28
2023-06-10T14:07:44.119Z,100118.03
2023-06-10T14:10:12.571Z,100118.28
2023-06-10T14:12:43.557Z,100119.84
2023-06-10T14:15:12.657Z,100117.63
2023-06-10T14:17:41.479Z,100114.47
2023-06-10T14:20:10.453Z,100117.06
2023-06-10T14:22:39.478Z,100116.75
2023-06-10T14:25:08.906Z,100119.44
2023-06-10T14:27:37.772Z,100118.03
2023-06-10T14:30:08.635Z,100115.97
2023-06-10T14:32:37.541Z,100103.09
2023-06-10T14:35:06.302Z,100108.06
2023-06-10T14:37:35.442Z,100105.50
2023-06-10T14:40:03.420Z,100109.09
2023-06-10T14:42:33.604Z,100118.47
2023-06-10T14:45:02.329Z,100109.00
2023-06-10T14:47:32.375Z,100107.56
2023-06-10T14:50:00.553Z,100101.50
2023-06-10T14:52:29.133Z,100100.56
2023-06-10T14:54:58.224Z,100107.91
2023-06-10T14:57:26.925Z,100099.81
2023-06-10T14:59:54.922Z,100101.09
2023-06-10T15:02:23.776Z,100102.59
2023-06-10T15:04:53.246Z,100101.09
2023-06-10T15:07:21.646Z,100092.53
2023-06-10T15:09:49.695Z,100095.00
2023-06-10T15:12:18.197Z,100089.44
2023-06-10T15:14:46.185Z,100084.00
2023-06-10T15:17:14.616Z,100086.25
2023-06-10T15:19:43.073Z,100078.09
2023-06-10T15:22:13.035Z,100075.59
2023-06-10T15:24:41.577Z,100079.34
2023-06-10T15:27:09.562Z,100077.97
2023-06-10T15:29:38.118Z,100070.47
2023-06-10T15:32:06.960Z,100066.44
2023-06-10T15:34:35.957Z,100078.28
2023-06-10T15:37:04.321Z,100072.13
2023-06-10T15:39:34.806Z,100082.50
2023-06-10T15:42:02.781Z,100068.59
2023-06-10T15:44:31.744Z,100070.25
2023-06-10T15:47:00.302Z,100064.84
2023-06-10T15:49:28.355Z,100073.81
2023-06-10T15:51:56.549Z,100067.16
2023-06-10T15:54:24.623Z,100067.16
2023-06-10T15:56:53.950Z,100071.19
2023-06-10T15:59:22.896Z,100073.53
2023-06-10T16:01:50.951Z,100061.44
2023-06-10T16:04:19.997Z,100069.31
2023-06-10T16:06:49.464Z,100067.25
2023-06-10T16:09:18.580Z,100066.97
2023-06-10T16:11:46.540Z,100062.69
2023-06-10T16:14:16.411Z,100061.06
2023-06-10T16:16:44.452Z,100062.28
2023-06-10T16:19:12.998Z,100067.38
2023-06-10T16:21:41.717Z,100063.94
2023-06-10T16:24:11.137Z,100053.16
2023-06-10T16:26:39.244Z,100055.13
2023-06-10T16:29:08.235Z,100059.53
2023-06-10T16:31:37.710Z,100053.88
2023-06-10T16:34:06.157Z,100054.88
2023-06-10T16:36:34.159Z,100055.72
2023-06-10T16:39:03.159Z,100053.63
2023-06-10T16:41:31.139Z,100056.19
2023-06-10T16:44:02.757Z,100051.78
2023-06-10T16:46:33.155Z,100055.56
2023-06-10T16:49:02.590Z,100050.41
2023-06-10T16:51:31.547Z,100045.09
2023-06-10T16:53:59.536Z,100051.22
2023-06-10T16:56:28.545Z,100051.66
2023-06-10T16:58:56.562Z,100053.88
2023-06-10T17:01:25.057Z,100058.81
2023-06-10T17:03:53.634Z,100058.97
2023-06-10T17:06:23.485Z,100055.91
2023-06-10T17:08:52.312Z,100056.38
2023-06-10T17:11:23.066Z,100050.81
2023-06-10T17:13:51.432Z,100059.81
2023-06-10T17:16:20.454Z,100059.81
2023-06-10T17:18:48.491Z,100056.75
2023-06-10T17:21:16.583Z,100056.91
2023-06-10T17:23:46.056Z,100062.88
2023-06-10T17:26:15.243Z,100061.19
2023-06-10T17:28:43.257Z,100062.28
2023-06-10T17:31:12.239Z,100070.97
2023-06-10T17:33:40.277Z,100070.03
2023-06-10T17:36:09.339Z,100072.94
2023-06-10T17:38:37.329Z,100062.22
2023-06-10T17:41:08.841Z,100079.66
2023-06-10T17:43:36.806Z,100076.97
2023-06-10T17:46:05.831Z,100089.97
2023-06-10T17:48:33.818Z,100081.72
2023-06-10T17:51:02.351Z,100082.28
2023-06-10T17:53:30.382Z,100082.19
2023-06-10T17:56:01.906Z,100079.16
2023-06-10T17:58:31.693Z,100072.78
2023-06-10T18:01:01.009Z,100075.06
2023-06-10T18:03:29.133Z,100075.06
2023-06-10T18:05:57.918Z,100078.84
2023-06-10T18:08:25.938Z,100078.59
2023-06-10T18:10:54.579Z,100078.84
2023-06-10T18:13:22.583Z,100081.75
2023-06-10T18:15:52.524Z,100079.44
2023-06-10T18:18:20.587Z,100083.00
2023-06-10T18:20:49.103Z,100083.03
2023-06-10T18:23:17.229Z,100085.34
2023-06-10T18:25:45.320Z,100083.78
2023-06-10T18:28:14.245Z,100085.50
2023-06-10T18:30:42.306Z,100080.63
2023-06-10T18:33:12.663Z,100092.00
2023-06-10T18:35:40.783Z,100083.25
2023-06-10T18:38:09.494Z,100086.09
2023-06-10T18:40:37.468Z,100082.94
2023-06-10T18:43:06.083Z,100091.97
2023-06-10T18:45:34.109Z,100095.06
2023-06-10T18:48:03.227Z,100088.84
2023-06-10T18:50:32.741Z,100102.63
2023-06-10T18:53:01.173Z,100107.50
2023-06-10T18:55:33.196Z,100112.81
2023-06-10T18:58:01.972Z,100112.00
2023-06-10T19:00:30.017Z,100113.63
2023-06-10T19:02:58.652Z,100125.72
2023-06-10T19:05:26.806Z,100123.09
2023-06-10T19:07:56.704Z,100123.41
2023-06-10T19:10:24.745Z,100123.41
2023-06-10T19:12:53.804Z,100139.03
2023-06-10T19:15:22.149Z,100145.13
2023-06-10T19:17:52.426Z,100130.03
2023-06-10T19:20:20.577Z,100142.84
2023-06-10T19:22:48.552Z,100149.34
2023-06-10T19:25:20.144Z,100150.56
2023-06-10T19:27:49.238Z,100155.81
2023-06-10T19:30:17.240Z,100151.16
2023-06-10T19:32:46.350Z,100155.50
2023-06-10T19:35:14.597Z,100150.44
2023-06-10T19:37:43.535Z,100150.63
2023-06-10T19:40:12.436Z,100150.91
2023-06-10T19:42:42.742Z,100150.09
2023-06-10T19:45:11.371Z,100151.03
2023-06-10T19:47:40.614Z,100153.56
2023-06-10T19:50:09.138Z,100156.41
2023-06-10T19:52:37.758Z,100162.28
2023-06-10T19:55:06.866Z,100161.31
2023-06-10T19:57:35.022Z,100163.69
2023-06-10T20:00:05.431Z,100168.19
2023-06-10T20:02:41.526Z,100165.94
2023-06-10T20:05:10.310Z,100165.03
2023-06-10T20:07:38.581Z,100167.88
2023-06-10T20:10:07.055Z,100169.69
2023-06-10T20:12:35.179Z,100166.22
2023-06-10T20:15:04.999Z,100171.47
2023-06-10T20:17:33.110Z,100166.88
2023-06-10T20:20:01.706Z,100166.72
2023-06-10T20:22:29.835Z,100176.06
2023-06-10T20:24:57.925Z,100181.75
2023-06-10T20:27:26.054Z,100185.75
2023-06-10T20:29:57.160Z,100189.31
2023-06-10T20:32:29.054Z,100192.59
2023-06-10T20:34:58.318Z,100199.66
2023-06-10T20:37:26.809Z,100202.72
2023-06-10T20:39:55.610Z,100198.50
2023-06-10T20:42:23.648Z,100205.31
2023-06-10T20:44:52.406Z,100216.00
2023-06-10T20:47:20.624Z,100217.66
2023-06-10T20:49:50.065Z,100212.19
2023-06-10T20:52:18.178Z,100224.16
2023-06-10T20:54:46.311Z,100222.94
2023-06-10T20:57:14.813Z,100223.38
2023-06-10T20:59:42.879Z,100230.13
2023-06-10T21:02:11.086Z,100228.13
2023-06-10T21:04:39.269Z,100227.88
2023-06-10T21:07:09.409Z,100231.25
2023-06-10T21:09:37.991Z,100234.28
2023-06-10T21:12:07.280Z,100238.19
2023-06-10T21:14:35.404Z,100240.34
2023-06-10T21:17:03.397Z,100239.06
2023-06-10T21:19:31.443Z,100241.09
2023-06-10T21:22:01.909Z,100234.38
2023-06-10T21:24:32.760Z,100243.50
2023-06-10T21:27:01.284Z,100236.75
2023-06-10T21:29:29.779Z,100241.78
2023-06-10T21:31:58.537Z,100238.25
2023-06-10T21:34:27.515Z,100251.25
2023-06-10T21:36:56.104Z,100243.50
2023-06-10T21:39:24.091Z,100244.00
2023-06-10T21:41:53.505Z,100243.66
2023-06-10T21:44:22.148Z,100235.03
2023-06-10T21:46:50.241Z,100238.03
2023-06-10T21:49:19.445Z,100246.16
2023-06-10T21:51:47.504Z,100240.22
2023-06-10T21:54:15.525Z,100240.38
2023-06-10T21:56:48.264Z,100243.91
2023-06-10T21:59:19.330Z,100244.25
2023-06-10T22:01:47.529Z,100244.94
2023-06-10T22:04:16.295Z,100242.47
2023-06-10T22:06:45.092Z,100253.03
2023-06-10T22:09:13.099Z,100245.75
2023-06-10T22:11:41.128Z,100243.00
2023-06-10T22:14:09.154Z,100247.94
2023-06-10T22:16:38.629Z,100248.88
2023-06-10T22:19:08.550Z,100252.44
2023-06-10T22:21:37.586Z,100243.81
2023-06-10T22:24:07.471Z,100257.53
2023-06-10T22:26:52.225Z,100250.03
2023-06-10T22:29:21.846Z,100262.38
2023-06-10T22:31:51.872Z,100248.88
2023-06-10T22:34:20.050Z,100242.88
2023-06-10T22:36:48.557Z,100259.28
2023-06-10T22:39:17.267Z,100258.09
2023-06-10T22:41:45.809Z,100262.72
2023-06-10T22:44:14.308Z,100263.13
2023-06-10T22:46:43.213Z,100260.63
2023-06-10T22:49:13.187Z,100249.09
2023-06-10T22:51:42.571Z,100256.03
2023-06-10T22:54:11.046Z,100252.94
2023-06-10T22:56:39.052Z,100252.41
2023-06-10T22:59:08.315Z,100243.94
2023-06-10T23:01:36.356Z,100253.50
2023-06-10T23:04:05.172Z,100256.47
2023-06-10T23:06:35.496Z,100252.25
2023-06-10T23:09:03.871Z,100265.28
2023-06-10T23:11:32.817Z,100263.25
2023-06-10T23:14:00.784Z,100266.25
2023-06-10T23:16:29.350Z,100269.78
2023-06-10T23:18:57.687Z,100266.16
2023-06-10T23:21:30.236Z,100272.38
2023-06-10T23:24:01.961Z,100263.13
2023-06-10T23:26:30.103Z,100270.00
2023-06-10T23:28:58.989Z,100276.25
2023-06-10T23:31:27.288Z,100279.00
2023-06-10T23:33:56.271Z,100279.75
2023-06-10T23:36:24.848Z,100279.50
2023-06-10T23:38:53.750Z,100274.34
2023-06-10T23:41:23.657Z,100285.38
2023-06-10T23:43:51.692Z,100278.69
2023-06-10T23:46:20.220Z,100278.16
2023-06-10T23:48:49.185Z,100272.59
2023-06-10T23:51:17.235Z,100277.16
2023-06-10T23:53:45.669Z,100277.75
2023-06-10T23:56:15.197Z,100289.72
2023-06-10T23:58:44.530Z,100280.75
